Time;durP1;ratioP1;P1;durP2;ratioP2;P2;SDS_P1;SDS_P2;PMS_P1;PMS_P2;Temp;Humidity;BMP_temperature;BMP_pressure;BME280_temperature;BME280_humidity;BME280_pressure;Samples;Min_cycle;Max_cycle;Signal;HPM_P1;HPM_P2
2022/09/08 00:02:31;;;;;;;3.25;2.55;;;19.50;9.80;;;;;;7367597;19;20482;-69
2022/09/08 00:05:01;;;;;;;4.45;2.58;;;19.40;10.80;;;;;;7366014;19;20132;-69
2022/09/08 00:07:32;;;;;;;4.78;2.53;;;19.40;12.60;;;;;;7363409;19;20021;-70
2022/09/08 00:10:02;;;;;;;3.20;2.10;;;19.30;10.80;;;;;;7388452;19;20014;-68
2022/09/08 00:12:34;;;;;;;3.67;2.22;;;19.20;10.50;;;;;;7366681;19;20010;-69
2022/09/08 00:15:04;;;;;;;4.00;2.42;;;19.10;10.20;;;;;;7363428;19;20764;-68
2022/09/08 00:17:37;;;;;;;3.85;2.30;;;19.10;13.50;;;;;;7363981;19;20007;-69
2022/09/08 00:20:09;;;;;;;5.75;2.33;;;19.00;11.00;;;;;;7365975;19;20014;-69
2022/09/08 00:22:38;;;;;;;3.83;2.50;;;19.00;12.80;;;;;;7366354;19;20038;-69
2022/09/08 00:25:09;;;;;;;7.57;2.20;;;18.90;11.90;;;;;;7386342;19;20030;-69
2022/09/08 00:27:39;;;;;;;5.80;2.50;;;18.90;12.10;;;;;;7360277;19;20014;-69
2022/09/08 00:30:10;;;;;;;4.07;2.40;;;19.00;13.40;;;;;;7365849;19;20652;-69
2022/09/08 00:32:43;;;;;;;4.32;2.60;;;18.90;12.10;;;;;;7366947;19;20087;-68
2022/09/08 00:35:14;;;;;;;3.55;2.60;;;19.00;12.40;;;;;;7363472;19;20541;-69
2022/09/08 00:37:51;;;;;;;2.85;2.00;;;19.00;13.90;;;;;;7365921;19;20008;-68
2022/09/08 00:40:24;;;;;;;3.95;2.25;;;18.90;13.80;;;;;;7386738;19;20015;-69
2022/09/08 00:43:01;;;;;;;3.80;2.50;;;18.90;14.20;;;;;;7365448;19;20006;-68
2022/09/08 00:45:35;;;;;;;4.57;2.50;;;18.90;15.20;;;;;;7361660;19;20006;-69
2022/09/08 00:48:10;;;;;;;5.47;2.65;;;18.80;13.80;;;;;;7366853;19;20021;-69
2022/09/08 00:50:40;;;;;;;3.67;2.53;;;18.90;12.30;;;;;;7363797;19;20030;-69
2022/09/08 00:53:14;;;;;;;6.15;2.90;;;18.80;12.70;;;;;;7363349;19;20058;-69
2022/09/08 00:55:44;;;;;;;3.63;2.63;;;18.90;13.80;;;;;;7363582;19;20010;-69
2022/09/08 00:58:14;;;;;;;3.90;2.65;;;18.90;13.90;;;;;;7387954;19;20006;-69
2022/09/08 01:00:45;;;;;;;6.00;3.40;;;18.90;14.90;;;;;;7364627;19;20700;-69
2022/09/08 01:03:18;;;;;;;3.40;3.00;;;18.90;15.30;;;;;;7360318;19;20060;-68
2022/09/08 01:05:53;;;;;;;5.30;3.38;;;18.80;16.00;;;;;;7361753;19;20030;-68
2022/09/08 01:14:10;;;;;;;5.53;3.00;;;18.90;20.50;;;;;;7362636;19;20489;-69
2022/09/08 01:16:42;;;;;;;4.32;3.13;;;18.90;23.30;;;;;;7362302;19;20015;-69
2022/09/08 01:19:19;;;;;;;3.70;3.00;;;18.70;23.40;;;;;;7386535;19;20010;-69
2022/09/08 01:22:05;;;;;;;4.53;2.85;;;18.70;24.50;;;;;;7362532;19;19998;-69
2022/09/08 01:24:48;;;;;;;4.00;3.17;;;18.70;25.10;;;;;;7362949;19;20013;-69
2022/09/08 01:27:24;;;;;;;4.38;3.13;;;18.70;24.60;;;;;;7360445;19;20010;-69
2022/09/08 01:30:00;;;;;;;4.32;3.40;;;18.80;25.40;;;;;;7363684;19;20021;-69
2022/09/08 01:32:33;;;;;;;4.53;3.33;;;19.00;24.50;;;;;;7364059;19;20014;-69
2022/09/08 01:35:03;;;;;;;7.90;3.70;;;18.90;23.70;;;;;;7361979;19;20014;-69
2022/09/08 01:37:33;;;;;;;5.40;3.67;;;18.70;26.30;;;;;;7359958;19;20410;-69
2022/09/08 01:40:03;;;;;;;7.68;4.00;;;18.50;28.50;;;;;;7384910;19;20375;-69
2022/09/08 01:42:36;;;;;;;7.55;3.58;;;18.50;31.10;;;;;;7361691;19;20029;-68
2022/09/08 01:45:07;;;;;;;4.97;3.75;;;18.40;33.20;;;;;;7362928;19;20078;-68
2022/09/08 01:47:36;;;;;;;6.95;4.07;;;18.30;33.30;;;;;;7362422;19;20030;-68
2022/09/08 01:50:08;;;;;;;5.95;3.70;;;18.40;33.60;;;;;;7362423;19;20025;-69
2022/09/08 01:52:38;;;;;;;5.20;3.53;;;18.30;33.30;;;;;;7362812;19;20013;-69
2022/09/08 01:55:09;;;;;;;5.35;3.70;;;18.40;33.80;;;;;;7383083;19;20014;-69
2022/09/08 01:57:41;;;;;;;5.35;4.47;;;18.40;33.40;;;;;;7359340;19;20038;-69
2022/09/08 02:00:12;;;;;;;5.25;3.72;;;18.40;34.90;;;;;;7362720;19;20010;-69
2022/09/08 02:02:42;;;;;;;5.40;3.67;;;18.30;34.50;;;;;;7361378;19;20341;-69
2022/09/08 02:05:12;;;;;;;4.45;3.60;;;18.30;34.30;;;;;;7360835;19;20007;-69
2022/09/08 02:07:42;;;;;;;6.03;3.65;;;18.30;34.10;;;;;;7359647;19;20015;-69
2022/09/08 02:10:12;;;;;;;5.43;4.10;;;18.20;34.10;;;;;;7383881;19;20034;-69
2022/09/08 02:12:44;;;;;;;4.22;3.75;;;18.30;35.70;;;;;;7361825;19;20011;-69
2022/09/08 02:15:14;;;;;;;5.00;3.83;;;18.30;35.50;;;;;;7365012;19;20018;-69
2022/09/08 02:17:44;;;;;;;4.95;3.90;;;18.10;34.80;;;;;;7366950;19;20416;-69
2022/09/08 02:20:15;;;;;;;4.78;3.72;;;18.20;36.20;;;;;;7368595;19;20006;-68
2022/09/08 02:22:45;;;;;;;7.43;3.80;;;18.20;34.70;;;;;;7369989;19;20013;-68
2022/09/08 02:25:15;;;;;;;4.28;3.60;;;18.20;37.00;;;;;;7391749;19;20010;-69
2022/09/08 02:27:47;;;;;;;5.35;3.63;;;18.10;36.60;;;;;;7365861;19;20046;-68
2022/09/08 02:30:17;;;;;;;5.85;4.10;;;18.20;35.40;;;;;;7369232;19;20010;-68
2022/09/08 02:32:48;;;;;;;4.93;3.60;;;18.20;34.90;;;;;;7369501;19;20007;-67
2022/09/08 02:35:19;;;;;;;8.40;4.25;;;18.20;32.40;;;;;;7367033;19;20014;-67
2022/09/08 02:37:49;;;;;;;4.55;3.65;;;18.30;34.90;;;;;;7368751;19;20019;-68
2022/09/08 02:40:19;;;;;;;5.28;3.42;;;18.20;35.10;;;;;;7391309;19;20470;-69
2022/09/08 02:42:51;;;;;;;8.40;3.50;;;18.20;35.80;;;;;;7367253;19;20477;-69
2022/09/08 02:45:21;;;;;;;8.73;3.72;;;18.30;34.40;;;;;;7367389;19;20003;-69
2022/09/08 02:47:51;;;;;;;4.40;3.13;;;18.40;34.50;;;;;;7368087;19;20482;-68
2022/09/08 02:50:21;;;;;;;4.60;3.25;;;18.40;35.00;;;;;;7367632;19;20396;-68
2022/09/08 02:52:51;;;;;;;5.28;3.30;;;18.40;34.50;;;;;;7366852;19;20043;-67
2022/09/08 02:55:23;;;;;;;3.60;3.30;;;18.40;34.70;;;;;;7388608;19;20011;-68
2022/09/08 02:57:55;;;;;;;4.10;3.00;;;18.40;34.40;;;;;;7365570;19;20372;-67
2022/09/08 03:00:30;;;;;;;3.85;3.03;;;18.40;33.10;;;;;;7368471;19;20573;-68
2022/09/08 03:03:00;;;;;;;3.13;2.60;;;18.40;31.50;;;;;;7366053;19;20015;-69
2022/09/08 03:05:30;;;;;;;4.78;2.67;;;18.50;31.60;;;;;;7365818;19;20014;-69
2022/09/08 03:08:02;;;;;;;4.60;2.42;;;18.50;30.50;;;;;;7367171;19;20010;-69
2022/09/08 03:10:32;;;;;;;5.55;2.13;;;18.50;29.40;;;;;;7368793;19;20014;-69
2022/09/08 03:13:06;;;;;;;3.35;1.88;;;18.60;27.90;;;;;;7387958;19;20003;-69
2022/09/08 03:15:36;;;;;;;2.75;1.80;;;18.50;25.80;;;;;;7365906;19;20022;-70
2022/09/08 03:18:07;;;;;;;1.85;1.20;;;18.50;25.50;;;;;;7368890;19;20014;-69
2022/09/08 03:20:39;;;;;;;4.78;1.40;;;18.60;23.90;;;;;;7368147;19;20002;-69
2022/09/08 03:23:09;;;;;;;2.03;1.35;;;18.50;23.00;;;;;;7365295;19;20015;-69
2022/09/08 03:25:39;;;;;;;3.67;1.30;;;18.50;22.90;;;;;;7365321;19;20006;-69
2022/09/08 03:28:19;;;;;;;1.73;1.02;;;18.60;24.00;;;;;;7391111;19;20019;-68
2022/09/08 03:30:49;;;;;;;1.70;1.25;;;18.50;24.00;;;;;;7368486;19;20018;-70
2022/09/08 03:33:20;;;;;;;2.13;1.30;;;18.50;24.40;;;;;;7362932;19;20043;-69
2022/09/08 03:35:49;;;;;;;1.20;1.02;;;18.50;24.20;;;;;;7367546;19;20021;-69
2022/09/08 03:38:20;;;;;;;4.50;1.55;;;18.40;24.80;;;;;;7368640;19;20022;-69
2022/09/08 03:40:50;;;;;;;1.38;1.08;;;18.40;24.30;;;;;;7369554;19;20381;-69
2022/09/08 03:43:22;;;;;;;2.50;1.30;;;18.30;25.20;;;;;;7384736;19;20014;-69
2022/09/08 03:45:52;;;;;;;1.42;1.20;;;18.30;25.90;;;;;;7367512;19;21546;-69
2022/09/08 03:48:22;;;;;;;2.55;1.35;;;18.30;26.30;;;;;;7366814;19;20503;-69
2022/09/08 03:50:52;;;;;;;2.85;1.10;;;18.30;25.50;;;;;;7367849;19;20049;-69
2022/09/08 03:53:21;;;;;;;3.35;0.85;;;18.30;24.30;;;;;;7362082;19;20387;-69
2022/09/08 03:55:51;;;;;;;1.83;0.95;;;18.30;23.90;;;;;;7365876;19;20018;-70
2022/09/08 03:58:23;;;;;;;1.50;1.00;;;18.30;25.60;;;;;;7389805;19;20014;-69
2022/09/08 04:00:53;;;;;;;2.10;1.30;;;18.40;25.90;;;;;;7365160;19;20003;-69
2022/09/08 04:03:23;;;;;;;2.78;1.02;;;18.20;26.60;;;;;;7360219;19;20010;-68
2022/09/08 04:05:53;;;;;;;2.35;1.30;;;18.40;27.30;;;;;;7366541;19;20039;-68
2022/09/08 04:08:22;;;;;;;2.90;0.93;;;18.30;26.00;;;;;;7366321;19;20006;-67
2022/09/08 04:10:52;;;;;;;1.98;0.90;;;18.10;26.90;;;;;;7367813;19;20010;-67
2022/09/08 04:13:26;;;;;;;1.25;0.93;;;18.20;26.50;;;;;;7382835;19;20010;-68
2022/09/08 04:15:56;;;;;;;1.15;0.93;;;18.10;27.50;;;;;;7366120;19;20019;-68
2022/09/08 04:18:26;;;;;;;1.13;0.82;;;18.10;28.90;;;;;;7365529;19;20187;-68
2022/09/08 04:20:59;;;;;;;2.10;1.02;;;18.00;29.20;;;;;;7366943;19;20002;-68
2022/09/08 04:23:30;;;;;;;2.13;0.90;;;17.90;30.00;;;;;;7362175;19;20014;-68
2022/09/08 04:26:01;;;;;;;1.90;1.10;;;17.90;30.00;;;;;;7365070;19;20039;-68
2022/09/08 04:28:34;;;;;;;1.45;0.93;;;18.00;29.30;;;;;;7366691;19;20365;-68
2022/09/08 04:31:05;;;;;;;2.38;1.25;;;17.90;31.60;;;;;;7388136;19;20368;-68
2022/09/08 04:33:36;;;;;;;5.43;1.08;;;17.90;32.20;;;;;;7359969;19;20014;-68
2022/09/08 04:36:10;;;;;;;2.58;1.00;;;17.80;32.10;;;;;;7364655;19;20002;-68
2022/09/08 04:38:54;;;;;;;4.10;1.25;;;17.70;33.10;;;;;;7366046;19;20011;-68
2022/09/08 04:41:24;;;;;;;2.13;1.15;;;17.70;36.40;;;;;;7366274;19;20669;-68
2022/09/08 04:44:00;;;;;;;3.42;1.20;;;17.70;36.10;;;;;;7360700;19;20360;-68
2022/09/08 04:46:30;;;;;;;3.90;1.30;;;17.60;36.40;;;;;;7378622;19;20010;-67
2022/09/08 04:49:01;;;;;;;3.40;1.23;;;17.60;37.00;;;;;;7388065;19;20010;-68
2022/09/08 04:51:32;;;;;;;1.58;1.27;;;17.50;38.50;;;;;;7365741;19;20368;-67
2022/09/08 04:54:04;;;;;;;3.35;1.60;;;17.50;37.70;;;;;;7360470;19;20017;-68
2022/09/08 04:56:34;;;;;;;2.17;1.10;;;17.50;39.50;;;;;;7361344;19;20056;-68
2022/09/08 04:59:07;;;;;;;2.83;1.60;;;17.40;40.30;;;;;;7365200;19;20014;-68
2022/09/08 05:01:37;;;;;;;2.60;1.63;;;17.40;40.00;;;;;;7365068;19;20379;-67
2022/09/08 05:04:07;;;;;;;2.38;1.23;;;17.50;41.40;;;;;;7383865;19;20007;-68
2022/09/08 05:06:37;;;;;;;2.30;1.55;;;17.40;42.50;;;;;;7361906;19;20038;-68
2022/09/08 05:09:08;;;;;;;1.92;1.52;;;17.50;42.90;;;;;;7364924;19;20022;-68
2022/09/08 05:11:38;;;;;;;3.10;1.50;;;17.60;42.40;;;;;;7365868;19;21534;-68
2022/09/08 05:14:11;;;;;;;3.13;1.15;;;17.50;41.80;;;;;;7361071;19;20022;-68
2022/09/08 05:16:41;;;;;;;2.30;1.50;;;17.40;41.60;;;;;;7361719;19;20011;-69
2022/09/08 05:19:13;;;;;;;2.47;1.40;;;17.40;41.90;;;;;;7386884;19;20014;-69
2022/09/08 05:21:43;;;;;;;5.95;2.10;;;17.40;42.70;;;;;;7362986;19;20010;-67
2022/09/08 05:24:13;;;;;;;3.00;1.60;;;17.40;43.70;;;;;;7362076;19;20010;-68
2022/09/08 05:26:43;;;;;;;3.88;1.40;;;17.40;43.70;;;;;;7362192;19;20347;-68
2022/09/08 05:29:15;;;;;;;4.85;1.65;;;17.50;40.10;;;;;;7363967;19;20006;-67
2022/09/08 05:31:45;;;;;;;3.22;1.42;;;17.60;39.00;;;;;;7362049;19;20007;-68
2022/09/08 05:34:15;;;;;;;2.53;1.30;;;17.50;39.40;;;;;;7383006;19;20017;-68
2022/09/08 05:36:44;;;;;;;2.38;1.45;;;17.50;38.30;;;;;;7361389;19;20018;-68
2022/09/08 05:39:20;;;;;;;6.07;1.40;;;17.50;40.20;;;;;;7363047;19;20011;-68
2022/09/08 05:41:49;;;;;;;3.40;1.20;;;17.40;40.20;;;;;;7362490;19;20018;-68
2022/09/08 05:44:22;;;;;;;3.08;1.15;;;17.20;39.00;;;;;;7360663;19;20454;-68
2022/09/08 05:46:51;;;;;;;1.95;1.02;;;17.20;37.60;;;;;;7359281;19;20025;-69
2022/09/08 05:49:21;;;;;;;2.63;1.35;;;17.20;34.20;;;;;;7385694;19;20760;-67
2022/09/08 05:51:52;;;;;;;2.38;1.20;;;17.10;34.50;;;;;;7360456;19;20510;-68
2022/09/08 05:54:24;;;;;;;2.38;1.17;;;17.00;34.10;;;;;;7359182;19;20348;-68
2022/09/08 05:56:53;;;;;;;3.78;1.38;;;17.00;33.70;;;;;;7359992;19;20028;-68
2022/09/08 05:59:26;;;;;;;4.10;1.30;;;17.00;34.30;;;;;;7362605;19;20011;-68
2022/09/08 06:01:56;;;;;;;2.95;1.20;;;17.10;34.80;;;;;;7361064;19;20550;-68
2022/09/08 06:04:26;;;;;;;4.22;1.42;;;17.10;33.00;;;;;;7381227;19;20018;-67
2022/09/08 06:06:56;;;;;;;2.13;1.20;;;17.10;34.70;;;;;;7360666;19;20475;-68
2022/09/08 06:09:25;;;;;;;3.20;1.08;;;17.10;36.30;;;;;;7360799;19;20017;-67
2022/09/08 06:11:55;;;;;;;3.30;0.80;;;17.10;36.30;;;;;;7360536;19;20031;-69
2022/09/08 06:14:28;;;;;;;3.00;1.33;;;17.00;34.00;;;;;;7359327;19;20017;-68
2022/09/08 06:16:57;;;;;;;1.85;1.08;;;17.00;35.80;;;;;;7361075;19;20015;-69
2022/09/08 06:19:34;;;;;;;4.93;1.00;;;17.10;37.20;;;;;;7362194;19;20026;-67
2022/09/08 06:22:04;;;;;;;2.33;0.80;;;17.10;37.00;;;;;;7381833;19;20010;-67
2022/09/08 06:24:34;;;;;;;3.10;1.10;;;17.00;35.80;;;;;;7359053;19;20021;-68
2022/09/08 06:27:11;;;;;;;1.88;1.00;;;16.90;35.00;;;;;;7360828;19;20014;-67
2022/09/08 06:29:59;;;;;;;1.70;0.90;;;17.00;36.60;;;;;;7361099;19;20021;-68
2022/09/08 06:32:32;;;;;;;1.90;1.10;;;17.10;34.80;;;;;;7360000;19;20705;-68
2022/09/08 06:35:08;;;;;;;2.10;0.80;;;17.10;34.80;;;;;;7360329;19;20015;-68
2022/09/08 06:37:44;;;;;;;1.27;0.80;;;17.00;31.90;;;;;;7358904;19;20011;-67
2022/09/08 06:40:19;;;;;;;0.98;0.60;;;17.00;30.20;;;;;;7383046;19;20037;-67
2022/09/08 06:42:55;;;;;;;3.08;0.80;;;17.00;31.90;;;;;;7356819;19;20011;-68
2022/09/08 06:45:29;;;;;;;1.88;0.80;;;17.00;31.50;;;;;;7354495;19;20421;-67
2022/09/08 06:48:11;;;;;;;1.30;0.93;;;17.20;30.90;;;;;;7355432;19;20007;-67
2022/09/08 06:50:47;;;;;;;2.17;0.93;;;17.20;27.70;;;;;;7357042;19;20006;-68
2022/09/08 06:53:23;;;;;;;2.40;1.00;;;17.20;29.80;;;;;;7353708;19;20014;-68
2022/09/08 06:55:58;;;;;;;3.15;1.00;;;17.30;30.40;;;;;;7356033;19;20397;-69
2022/09/08 06:58:48;;;;;;;3.08;0.80;;;17.20;26.60;;;;;;7360143;19;20014;-69
2022/09/08 07:01:26;;;;;;;6.70;1.40;;;17.20;28.10;;;;;;7387536;19;20018;-67
2022/09/08 07:04:20;;;;;;;1.02;0.80;;;17.30;29.60;;;;;;7363773;19;20027;-68
2022/09/08 07:06:53;;;;;;;;;;;17.40;27.50;;;;;;7366335;19;20021;-66
2022/09/08 07:09:32;;;;;;;2.05;0.88;;;17.40;29.40;;;;;;7366737;19;19938;-69
2022/09/08 07:12:13;;;;;;;2.70;0.90;;;17.40;27.10;;;;;;7365061;19;20469;-67
2022/09/08 07:14:59;;;;;;;2.95;1.27;;;17.50;27.30;;;;;;7365033;19;20031;-67
2022/09/08 07:17:37;;;;;;;3.88;1.48;;;17.50;29.90;;;;;;7366367;19;20015;-68
2022/09/08 07:20:14;;;;;;;10.52;4.03;;;17.50;29.80;;;;;;7366725;19;20017;-68
2022/09/08 07:22:52;;;;;;;5.40;1.80;;;17.60;28.40;;;;;;7363460;19;20484;-68
2022/09/08 07:25:30;;;;;;;3.03;1.30;;;17.60;27.30;;;;;;7387883;19;20042;-68
2022/09/08 07:28:05;;;;;;;1.35;1.00;;;17.50;26.30;;;;;;7364503;19;20019;-67
2022/09/08 07:30:38;;;;;;;1.95;1.08;;;17.60;27.30;;;;;;7366298;19;20034;-67
2022/09/08 07:33:20;;;;;;;2.20;0.88;;;17.80;26.80;;;;;;7362182;19;20018;-68
2022/09/08 07:36:10;;;;;;;2.50;1.02;;;17.90;24.00;;;;;;7365447;19;20010;-68
2022/09/08 07:38:45;;;;;;;2.38;0.98;;;18.10;22.70;;;;;;7365811;19;20077;-68
2022/09/08 07:41:22;;;;;;;29.45;3.30;;;18.10;20.90;;;;;;7365506;19;20040;-68
2022/09/08 07:43:57;;;;;;;5.15;1.33;;;18.30;21.10;;;;;;7357966;19;20022;-68
2022/09/08 07:46:42;;;;;;;2.55;0.95;;;18.50;16.10;;;;;;7383196;19;20010;-67
2022/09/08 07:49:23;;;;;;;8.05;1.50;;;18.50;17.30;;;;;;7362001;19;20017;-66
2022/09/08 07:52:00;;;;;;;5.32;1.23;;;18.40;15.30;;;;;;7361075;19;20038;-68
2022/09/08 07:54:45;;;;;;;4.47;1.80;;;18.30;12.70;;;;;;7364634;19;20108;-68
2022/09/08 07:57:21;;;;;;;1.75;1.00;;;18.50;14.80;;;;;;7362861;19;20007;-68
2022/09/08 08:00:13;;;;;;;2.55;0.60;;;18.90;13.10;;;;;;7365088;19;20007;-68
2022/09/08 08:03:09;;;;;;;2.53;0.88;;;19.10;9.00;;;;;;7363618;19;20003;-68
2022/09/08 08:05:48;;;;;;;6.78;4.45;;;19.30;6.40;;;;;;7364302;19;20087;-68
2022/09/08 08:08:28;;;;;;;1.20;0.68;;;19.00;6.20;;;;;;7364084;19;20017;-67
2022/09/08 08:11:08;;;;;;;3.72;2.72;;;19.00;3.90;;;;;;7366473;19;20822;-67
2022/09/08 08:13:52;;;;;;;1.77;0.80;;;18.80;4.30;;;;;;7357057;19;20018;-68
2022/09/08 08:16:31;;;;;;;4.93;0.70;;;18.60;4.00;;;;;;7386839;19;20375;-68
2022/09/08 08:19:12;;;;;;;1.83;0.75;;;18.70;2.20;;;;;;7365197;19;20267;-68
2022/09/08 08:21:49;;;;;;;1.90;0.55;;;18.80;2.90;;;;;;7365017;19;20016;-69
2022/09/08 08:24:32;;;;;;;1.77;0.60;;;19.30;1.00;;;;;;7360539;19;20027;-68
2022/09/08 08:27:08;;;;;;;1.20;0.63;;;19.20;1.00;;;;;;7363975;19;20046;-67
2022/09/08 08:29:59;;;;;;;0.95;0.32;;;19.20;1.00;;;;;;7365575;19;20014;-68
2022/09/08 08:32:32;;;;;;;3.75;2.05;;;19.20;1.00;;;;;;7363815;19;20427;-68
2022/09/08 08:35:15;;;;;;;0.57;0.45;;;19.40;1.00;;;;;;7363453;19;20007;-68
2022/09/08 08:37:52;;;;;;;2.05;0.38;;;19.80;1.00;;;;;;7361694;19;20018;-68
2022/09/08 08:40:40;;;;;;;2.15;0.50;;;19.40;1.00;;;;;;7385006;19;20014;-69
2022/09/08 08:43:37;;;;;;;1.25;0.60;;;19.30;1.00;;;;;;7360396;19;21024;-68
2022/09/08 08:46:33;;;;;;;0.80;0.60;;;19.40;1.00;;;;;;7365088;19;20087;-69
2022/09/08 08:49:22;;;;;;;1.75;0.60;;;19.60;1.00;;;;;;7365208;19;20010;-67
2022/09/08 08:52:14;;;;;;;0.65;0.47;;;19.40;1.00;;;;;;7362310;19;20039;-67
2022/09/08 08:55:18;;;;;;;1.35;0.60;;;19.40;1.00;;;;;;7362380;19;20015;-68
2022/09/08 08:58:00;;;;;;;2.08;0.60;;;19.90;1.00;;;;;;7361153;19;20483;-68
2022/09/08 09:00:44;;;;;;;2.83;0.40;;;19.70;1.00;;;;;;7364339;19;20039;-68
2022/09/08 09:03:32;;;;;;;1.02;0.40;;;20.00;1.00;;;;;;7365082;19;20003;-65
2022/09/08 09:06:33;;;;;;;1.83;0.52;;;19.80;1.00;;;;;;7363798;19;20103;-68
2022/09/08 09:09:36;;;;;;;1.52;0.60;;;19.30;1.00;;;;;;7365299;19;20494;-67
2022/09/08 09:12:47;;;;;;;1.30;1.00;;;19.70;1.00;;;;;;7362348;19;20021;-68
2022/09/08 09:15:43;;;;;;;0.93;0.60;;;19.70;1.00;;;;;;7357329;19;20018;-67
2022/09/08 09:19:09;;;;;;;2.17;0.70;;;19.60;1.00;;;;;;7363905;19;20010;-66
2022/09/08 09:21:53;;;;;;;1.35;0.60;;;19.50;1.00;;;;;;7362938;19;20010;-67
2022/09/08 09:24:39;;;;;;;1.23;0.63;;;19.40;1.00;;;;;;7356342;19;20014;-68
2022/09/08 09:27:16;;;;;;;4.38;0.77;;;19.30;1.00;;;;;;7357659;19;20610;-68
2022/09/08 09:29:46;;;;;;;2.45;0.75;;;19.10;1.00;;;;;;7361623;19;20063;-67
2022/09/08 09:32:46;;;;;;;2.08;0.50;;;18.80;1.00;;;;;;7360607;19;20443;-68
2022/09/08 09:35:39;;;;;;;1.50;0.40;;;19.20;1.00;;;;;;7357613;19;20014;-68
2022/09/08 09:38:40;;;;;;;1.42;0.50;;;19.90;1.00;;;;;;7360722;19;20021;-67
2022/09/08 09:41:28;;;;;;;2.45;0.70;;;19.70;1.00;;;;;;7362659;19;20406;-67
2022/09/08 09:44:22;;;;;;;1.00;0.65;;;20.20;1.00;;;;;;7353097;19;20007;-67
2022/09/08 09:47:15;;;;;;;2.13;0.80;;;19.90;1.00;;;;;;7360973;19;20018;-67
2022/09/08 09:50:03;;;;;;;1.83;0.50;;;20.10;1.00;;;;;;7361875;19;20011;-67
2022/09/08 09:52:45;;;;;;;2.92;0.60;;;19.60;1.00;;;;;;7359924;19;20336;-67
2022/09/08 09:55:26;;;;;;;1.42;0.50;;;19.50;1.00;;;;;;7379055;19;20017;-67
2022/09/08 09:58:39;;;;;;;0.80;0.60;;;20.10;1.00;;;;;;7358505;19;20019;-67
2022/09/08 10:01:31;;;;;;;1.00;0.60;;;21.10;1.00;;;;;;7360615;19;20017;-68
2022/09/08 10:04:27;;;;;;;2.40;0.55;;;20.60;1.00;;;;;;7355120;19;20019;-67
2022/09/08 10:07:21;;;;;;;1.00;0.50;;;20.40;1.00;;;;;;7360311;19;20018;-67
2022/09/08 10:10:28;;;;;;;1.75;0.60;;;20.80;1.00;;;;;;7360511;19;20010;-68
2022/09/08 10:13:33;;;;;;;1.00;0.77;;;20.40;1.00;;;;;;7361168;19;20461;-68
2022/09/08 10:16:20;;;;;;;2.85;0.70;;;20.70;1.00;;;;;;7360895;19;20025;-68
2022/09/08 10:19:19;;;;;;;0.90;0.68;;;20.80;1.00;;;;;;7362011;19;20349;-67
2022/09/08 10:22:15;;;;;;;1.40;0.70;;;20.70;1.00;;;;;;7365518;19;20015;-67
2022/09/08 10:25:19;;;;;;;0.75;0.45;;;20.60;1.00;;;;;;7365423;19;20038;-68
2022/09/08 10:28:15;;;;;;;1.70;0.60;;;20.40;1.00;;;;;;7361253;19;20339;-68
2022/09/08 10:31:17;;;;;;;1.13;0.57;;;20.60;1.00;;;;;;7364024;19;20086;-67
2022/09/08 10:34:20;;;;;;;2.30;0.47;;;20.50;1.00;;;;;;7365305;19;20006;-68
2022/09/08 10:37:06;;;;;;;1.10;0.77;;;20.40;1.00;;;;;;7368865;19;20048;-68
2022/09/08 10:39:45;;;;;;;0.98;0.55;;;20.40;1.00;;;;;;7370414;19;20006;-68
2022/09/08 10:42:39;;;;;;;1.42;0.60;;;20.70;1.00;;;;;;7371519;19;20018;-68
2022/09/08 10:45:21;;;;;;;0.80;0.50;;;21.10;1.00;;;;;;7369240;19;20533;-67
2022/09/08 10:48:18;;;;;;;1.95;0.60;;;20.40;1.00;;;;;;7368877;19;20014;-68
2022/09/08 10:50:53;;;;;;;1.20;0.60;;;20.10;1.00;;;;;;7372018;19;20010;-68
2022/09/08 10:53:49;;;;;;;3.08;0.60;;;19.90;1.00;;;;;;7374420;19;20038;-68
2022/09/08 10:56:28;;;;;;;1.75;0.60;;;20.00;1.00;;;;;;7373151;19;20014;-66
2022/09/08 10:59:18;;;;;;;1.40;0.47;;;20.20;1.00;;;;;;7371616;19;20320;-67
2022/09/08 11:02:16;;;;;;;0.70;0.60;;;19.80;1.00;;;;;;7373767;19;20010;-68
2022/09/08 11:05:16;;;;;;;1.63;0.68;;;19.90;1.00;;;;;;7373862;19;20094;-68
2022/09/08 11:08:14;;;;;;;1.48;0.82;;;20.20;1.00;;;;;;7368341;19;20022;-69
2022/09/08 11:10:57;;;;;;;0.88;0.60;;;20.10;1.00;;;;;;7372102;19;20021;-68
2022/09/08 11:13:33;;;;;;;0.90;0.80;;;19.70;1.00;;;;;;7394285;19;20331;-67
2022/09/08 11:16:32;;;;;;;1.58;0.75;;;19.50;1.00;;;;;;7372269;19;20035;-68
2022/09/08 11:19:30;;;;;;;5.88;0.70;;;20.50;1.00;;;;;;7372285;19;20014;-68
2022/09/08 11:22:17;;;;;;;2.72;0.52;;;20.60;1.00;;;;;;7372751;19;20054;-68
2022/09/08 11:24:59;;;;;;;1.67;0.40;;;20.60;1.00;;;;;;7372672;19;20018;-67
2022/09/08 11:27:37;;;;;;;1.52;0.90;;;20.70;1.00;;;;;;7368647;19;20007;-67
2022/09/08 11:30:17;;;;;;;1.60;0.70;;;21.00;1.00;;;;;;7369607;19;20011;-68
2022/09/08 11:32:57;;;;;;;1.15;0.68;;;21.00;1.00;;;;;;7372480;19;20010;-67
2022/09/08 11:35:42;;;;;;;4.47;0.80;;;20.90;1.00;;;;;;7371943;19;20024;-67
2022/09/08 11:38:26;;;;;;;;;;;21.00;1.00;;;;;;7371217;19;20010;-67
2022/09/08 11:41:27;;;;;;;1.85;0.50;;;20.70;1.00;;;;;;7370907;19;19919;-68
2022/09/08 11:44:24;;;;;;;1.92;0.60;;;20.90;1.00;;;;;;7372505;19;20014;-67
2022/09/08 11:47:12;;;;;;;2.03;0.60;;;20.90;1.00;;;;;;7369416;19;20026;-68
2022/09/08 11:50:15;;;;;;;3.80;0.90;;;21.20;1.00;;;;;;7370032;19;20038;-67
2022/09/08 11:53:47;;;;;;;3.00;0.90;;;20.90;1.00;;;;;;7370867;19;20014;-68
2022/09/08 11:57:10;;;;;;;2.50;0.63;;;20.90;1.00;;;;;;7370048;19;20100;-67
2022/09/08 12:00:14;;;;;;;4.45;0.95;;;21.20;1.00;;;;;;7369981;19;20011;-68
2022/09/08 12:03:10;;;;;;;3.15;0.90;;;21.30;1.00;;;;;;7371004;19;20474;-68
2022/09/08 12:06:03;;;;;;;3.22;2.33;;;21.70;1.00;;;;;;7367475;19;20015;-68
2022/09/08 12:09:34;;;;;;;1.50;0.52;;;21.80;1.00;;;;;;7369839;19;20582;-68
2022/09/08 12:12:47;;;;;;;7.32;1.45;;;21.70;1.00;;;;;;7369103;19;20018;-68
2022/09/08 12:15:37;;;;;;;1.85;0.75;;;22.00;1.00;;;;;;7370852;19;20390;-68
2022/09/08 12:18:23;;;;;;;3.72;1.15;;;22.10;1.00;;;;;;7368009;19;20010;-68
2022/09/08 12:21:17;;;;;;;5.40;1.33;;;22.20;1.00;;;;;;7369086;19;20039;-67
2022/09/08 12:23:51;;;;;;;;;;;22.30;1.00;;;;;;7371435;19;20014;-67
2022/09/08 12:26:35;;;;;;;2.17;1.00;;;22.30;1.00;;;;;;7367987;19;19907;-67
2022/09/08 12:29:34;;;;;;;3.72;0.60;;;22.70;1.00;;;;;;7368418;19;20500;-68
2022/09/08 12:32:27;;;;;;;1.70;0.70;;;22.30;1.00;;;;;;7370636;19;20007;-68
2022/09/08 12:35:22;;;;;;;2.58;0.70;;;22.10;1.00;;;;;;7368427;19;20359;-67
2022/09/08 12:38:20;;;;;;;3.13;0.70;;;21.60;1.00;;;;;;7367832;19;20038;-68
2022/09/08 12:41:07;;;;;;;2.78;0.70;;;21.60;1.00;;;;;;7369142;19;20466;-68
2022/09/08 12:43:42;;;;;;;2.03;0.63;;;21.60;1.00;;;;;;7369452;19;20014;-68
2022/09/08 12:46:55;;;;;;;4.57;0.75;;;21.60;1.00;;;;;;7367789;19;20021;-68
2022/09/08 12:49:54;;;;;;;1.95;0.70;;;21.90;1.00;;;;;;7388785;19;20829;-68
2022/09/08 12:52:39;;;;;;;2.08;0.73;;;22.20;1.00;;;;;;7369759;19;20094;-68
2022/09/08 12:55:19;;;;;;;2.05;0.80;;;22.00;1.00;;;;;;7369784;19;20011;-69
2022/09/08 12:57:56;;;;;;;2.05;0.52;;;22.30;1.00;;;;;;7363871;19;20104;-67
2022/09/08 13:00:30;;;;;;;2.00;0.90;;;22.30;1.00;;;;;;7366213;19;20007;-68
2022/09/08 13:03:24;;;;;;;3.25;0.70;;;22.80;1.00;;;;;;7369386;19;20030;-67
2022/09/08 13:06:20;;;;;;;1.88;0.63;;;22.90;1.00;;;;;;7367902;19;20015;-67
2022/09/08 13:09:04;;;;;;;2.78;0.57;;;23.00;1.00;;;;;;7367588;19;20079;-66
2022/09/08 13:11:52;;;;;;;3.63;0.80;;;22.40;1.00;;;;;;7369118;19;20033;-68
2022/09/08 13:14:36;;;;;;;1.88;0.57;;;22.50;1.00;;;;;;7368054;19;20100;-67
2022/09/08 13:17:14;;;;;;;2.45;0.70;;;22.70;1.00;;;;;;7367996;19;20018;-68
2022/09/08 13:20:03;;;;;;;4.57;0.93;;;22.30;1.00;;;;;;7367861;19;20357;-69
2022/09/08 13:22:42;;;;;;;1.67;0.50;;;22.60;1.00;;;;;;7366687;19;20355;-68
2022/09/08 13:25:21;;;;;;;3.15;0.70;;;22.80;1.00;;;;;;7390673;19;20006;-68
2022/09/08 13:28:15;;;;;;;2.55;0.60;;;23.20;1.00;;;;;;7364949;19;20485;-69
2022/09/08 13:30:59;;;;;;;1.92;0.60;;;23.80;1.00;;;;;;7366982;19;20014;-69
2022/09/08 13:34:00;;;;;;;2.30;0.75;;;23.80;1.00;;;;;;7368232;19;20093;-69
2022/09/08 13:36:59;;;;;;;3.53;0.50;;;23.50;1.00;;;;;;7366098;19;20018;-70
2022/09/08 13:39:51;;;;;;;2.53;0.65;;;23.20;1.00;;;;;;7366222;19;20038;-68
2022/09/08 13:42:31;;;;;;;1.33;0.50;;;23.10;1.00;;;;;;7367500;19;20006;-68
2022/09/08 13:45:35;;;;;;;4.25;0.75;;;23.10;1.00;;;;;;7368487;19;20026;-68
2022/09/08 13:48:26;;;;;;;3.03;0.70;;;23.00;1.00;;;;;;7363805;19;20018;-70
2022/09/08 13:51:21;;;;;;;4.78;1.00;;;23.20;1.00;;;;;;7366865;19;20047;-68
2022/09/08 13:54:28;;;;;;;5.22;0.95;;;23.30;1.00;;;;;;7367276;19;20355;-68
2022/09/08 13:57:14;;;;;;;3.20;0.93;;;23.30;1.00;;;;;;7366273;19;20042;-67
2022/09/08 13:59:57;;;;;;;1.92;0.80;;;23.80;1.00;;;;;;7366850;19;20085;-68
2022/09/08 14:02:33;;;;;;;4.03;0.60;;;23.80;1.00;;;;;;7365813;19;20051;-68
2022/09/08 14:05:09;;;;;;;2.60;0.70;;;23.90;1.00;;;;;;7366759;19;20011;-68
2022/09/08 14:07:38;;;;;;;3.22;0.73;;;24.00;1.00;;;;;;7363288;19;20617;-68